Time;durP1;ratioP1;P1;durP2;ratioP2;P2;SDS_P1;SDS_P2;PMS_P1;PMS_P2;Temp;Humidity;BMP_temperature;BMP_pressure;BME280_temperature;BME280_humidity;BME280_pressure;Samples;Min_cycle;Max_cycle;Signal;HPM_P1;HPM_P2
2023/08/04 00:01:39;;;;;;;3.22;1.20;;;16.10;99.90;;;;;;5003113;28;20061;-34
2023/08/04 00:04:04;;;;;;;4.60;0.90;;;16.00;99.90;;;;;;5000096;28;20507;-35
2023/08/04 00:06:30;;;;;;;3.20;0.80;;;16.00;99.90;;;;;;5005486;28;20243;-35
2023/08/04 00:08:55;;;;;;;2.15;0.77;;;16.00;99.90;;;;;;4998215;28;20081;-35
2023/08/04 00:11:21;;;;;;;4.28;0.90;;;15.90;99.90;;;;;;5007116;28;20447;-35
2023/08/04 00:13:47;;;;;;;3.63;0.90;;;15.90;99.90;;;;;;5003188;28;20116;-35
2023/08/04 00:16:12;;;;;;;2.38;0.98;;;15.90;99.90;;;;;;5004064;28;20057;-35
2023/08/04 00:18:38;;;;;;;3.05;1.02;;;15.90;99.90;;;;;;5008107;28;20097;-35
2023/08/04 00:21:04;;;;;;;8.07;0.95;;;15.80;99.90;;;;;;5005932;28;20062;-35
2023/08/04 00:23:29;;;;;;;3.45;1.05;;;15.80;99.90;;;;;;5011091;28;20053;-35
2023/08/04 00:25:55;;;;;;;3.97;1.00;;;15.80;99.90;;;;;;5003853;28;20057;-35
2023/08/04 00:28:22;;;;;;;4.35;1.17;;;15.70;99.90;;;;;;4999848;28;20041;-35
2023/08/04 00:30:48;;;;;;;1.90;0.95;;;15.70;99.90;;;;;;5004978;28;20057;-35
2023/08/04 00:33:14;;;;;;;2.72;1.00;;;15.60;99.90;;;;;;4991107;28;20065;-35
2023/08/04 00:35:40;;;;;;;2.53;0.73;;;15.60;99.90;;;;;;4995591;28;20058;-34
2023/08/04 00:38:05;;;;;;;7.03;1.20;;;15.60;99.90;;;;;;5003743;28;20100;-35
2023/08/04 00:40:32;;;;;;;5.07;0.90;;;15.50;99.90;;;;;;5015637;28;20062;-36
2023/08/04 00:42:58;;;;;;;2.97;0.88;;;15.50;99.90;;;;;;5008119;28;20133;-35
2023/08/04 00:45:26;;;;;;;3.17;0.93;;;15.50;99.90;;;;;;5004176;28;20136;-35
2023/08/04 00:47:52;;;;;;;5.10;0.95;;;15.50;99.90;;;;;;5008570;28;20061;-35
2023/08/04 00:50:19;;;;;;;2.80;0.77;;;15.50;99.90;;;;;;5010741;28;20049;-35
2023/08/04 00:52:46;;;;;;;4.78;0.90;;;15.40;99.90;;;;;;5007629;28;20053;-35
2023/08/04 00:55:14;;;;;;;3.63;0.80;;;15.40;99.90;;;;;;5008207;28;20069;-34
2023/08/04 00:57:39;;;;;;;3.00;0.75;;;15.40;99.90;;;;;;5007175;28;20507;-34
2023/08/04 01:00:07;;;;;;;2.67;0.80;;;15.40;99.90;;;;;;5007505;28;20065;-35
2023/08/04 01:02:34;;;;;;;1.85;0.50;;;15.40;99.90;;;;;;5004796;28;20041;-34
2023/08/04 01:05:02;;;;;;;1.83;0.70;;;15.40;99.90;;;;;;5009002;28;20115;-35
2023/08/04 01:07:35;;;;;;;3.95;0.60;;;15.40;99.90;;;;;;5007279;28;20046;-35
2023/08/04 01:10:33;;;;;;;5.78;0.80;;;15.30;99.90;;;;;;5006505;28;20108;-35
2023/08/04 01:13:06;;;;;;;4.00;1.20;;;15.40;99.90;;;;;;5007750;28;20074;-35
2023/08/04 01:15:33;;;;;;;4.10;0.90;;;15.40;99.90;;;;;;4990714;28;20049;-35
2023/08/04 01:17:59;;;;;;;2.83;0.70;;;15.30;99.90;;;;;;5010474;28;20080;-35
2023/08/04 01:20:26;;;;;;;4.93;0.70;;;15.30;99.90;;;;;;5005133;28;20495;-34
2023/08/04 01:22:52;;;;;;;3.13;0.50;;;15.30;99.90;;;;;;5009212;28;20507;-35
2023/08/04 01:25:21;;;;;;;2.92;0.60;;;15.30;99.90;;;;;;5006889;28;20173;-35
2023/08/04 01:27:55;;;;;;;2.20;0.60;;;15.30;99.90;;;;;;5005348;28;20578;-35
2023/08/04 01:30:23;;;;;;;3.42;0.45;;;15.40;99.90;;;;;;5004467;28;20188;-34
2023/08/04 01:32:49;;;;;;;1.95;0.30;;;15.40;99.90;;;;;;5020860;28;20049;-35
2023/08/04 01:35:16;;;;;;;3.72;0.50;;;15.30;99.90;;;;;;5008317;28;20045;-35
2023/08/04 01:37:43;;;;;;;0.82;0.30;;;15.40;99.90;;;;;;5004831;28;20132;-35
2023/08/04 01:40:13;;;;;;;1.98;0.32;;;15.40;99.90;;;;;;5008290;28;20518;-35
2023/08/04 01:42:39;;;;;;;2.08;0.35;;;15.40;99.90;;;;;;5007840;28;20418;-35
2023/08/04 01:45:05;;;;;;;2.85;0.60;;;15.40;99.90;;;;;;5009423;28;20056;-34
2023/08/04 01:47:31;;;;;;;0.90;0.30;;;15.40;99.90;;;;;;5008463;28;20052;-35
2023/08/04 01:49:57;;;;;;;0.73;0.20;;;15.40;99.90;;;;;;5011575;28;20054;-35
2023/08/04 01:52:23;;;;;;;0.98;0.50;;;15.40;99.90;;;;;;5006677;28;20054;-35
2023/08/04 01:54:49;;;;;;;1.05;0.38;;;15.40;99.90;;;;;;5005430;28;20053;-34
2023/08/04 01:57:15;;;;;;;1.88;0.40;;;15.40;99.90;;;;;;5005300;28;20411;-35
2023/08/04 01:59:40;;;;;;;2.25;0.30;;;15.40;99.90;;;;;;5003852;28;20224;-35
2023/08/04 02:02:07;;;;;;;3.70;0.30;;;15.40;99.90;;;;;;5011284;28;20049;-35
2023/08/04 02:04:32;;;;;;;2.33;0.40;;;15.40;99.90;;;;;;5013634;28;20038;-35
2023/08/04 02:06:58;;;;;;;1.17;0.57;;;15.40;99.90;;;;;;5013739;28;20479;-35
2023/08/04 02:09:27;;;;;;;1.08;0.32;;;15.40;99.90;;;;;;5008565;28;20041;-34
2023/08/04 02:11:54;;;;;;;2.25;0.30;;;15.40;99.90;;;;;;5008075;28;20044;-35
2023/08/04 02:14:19;;;;;;;2.95;0.40;;;15.30;99.90;;;;;;5012389;28;20049;-35
2023/08/04 02:16:45;;;;;;;3.83;0.40;;;15.30;99.90;;;;;;5009909;28;20042;-35
2023/08/04 02:19:11;;;;;;;5.13;0.70;;;15.30;99.90;;;;;;5009766;28;20053;-35
2023/08/04 02:21:37;;;;;;;2.38;0.38;;;15.30;99.90;;;;;;5007453;28;20056;-34
2023/08/04 02:24:03;;;;;;;2.80;0.40;;;15.30;99.90;;;;;;5004779;28;20407;-34
2023/08/04 02:26:29;;;;;;;3.95;0.40;;;15.20;99.90;;;;;;5007899;28;20057;-35
2023/08/04 02:28:55;;;;;;;2.25;0.50;;;15.20;99.90;;;;;;5003694;28;20060;-35
2023/08/04 02:31:23;;;;;;;1.85;0.40;;;15.20;99.90;;;;;;5007559;28;20053;-34
2023/08/04 02:33:49;;;;;;;1.20;0.30;;;15.20;99.90;;;;;;5005535;28;20060;-35
2023/08/04 02:36:16;;;;;;;1.50;0.35;;;15.30;99.90;;;;;;5002085;28;20115;-34
2023/08/04 02:38:41;;;;;;;2.38;0.50;;;15.30;99.90;;;;;;5009826;28;20057;-34
2023/08/04 02:41:09;;;;;;;1.95;0.50;;;15.30;99.90;;;;;;5008665;28;20065;-34
2023/08/04 02:43:35;;;;;;;3.90;0.60;;;15.30;99.90;;;;;;5006846;28;20131;-35
2023/08/04 02:46:01;;;;;;;4.88;0.60;;;15.30;99.90;;;;;;5013475;28;20057;-35
2023/08/04 02:48:27;;;;;;;2.30;0.45;;;15.40;99.90;;;;;;5010474;28;20148;-35
2023/08/04 02:51:12;;;;;;;1.00;0.32;;;15.30;99.90;;;;;;5006948;28;20536;-35
2023/08/04 02:53:42;;;;;;;2.45;0.40;;;15.30;99.90;;;;;;5003892;28;20049;-35
2023/08/04 02:56:12;;;;;;;4.57;0.60;;;15.30;99.90;;;;;;5004969;28;20074;-35
2023/08/04 02:58:39;;;;;;;2.15;0.52;;;15.30;99.90;;;;;;5004766;28;20542;-35
2023/08/04 03:01:05;;;;;;;0.50;0.30;;;15.30;99.90;;;;;;5005295;28;20065;-35
2023/08/04 03:03:31;;;;;;;3.00;1.00;;;15.30;99.90;;;;;;5006064;28;20054;-35
2023/08/04 03:05:58;;;;;;;1.80;0.60;;;15.30;99.90;;;;;;5007077;28;20137;-34
2023/08/04 03:08:24;;;;;;;2.97;0.60;;;15.30;99.90;;;;;;5002386;28;20933;-35
2023/08/04 03:10:50;;;;;;;2.05;0.45;;;15.30;99.90;;;;;;5001946;28;20053;-34
2023/08/04 03:13:15;;;;;;;0.98;0.38;;;15.30;99.90;;;;;;5002487;28;20049;-35
2023/08/04 03:15:41;;;;;;;1.00;0.35;;;15.30;99.90;;;;;;5007608;28;20115;-35
2023/08/04 03:18:07;;;;;;;1.25;0.30;;;15.30;99.90;;;;;;5008186;28;20094;-34
2023/08/04 03:20:38;;;;;;;1.35;0.60;;;15.30;99.90;;;;;;5005393;28;20104;-34
2023/08/04 03:23:04;;;;;;;0.57;0.30;;;15.30;99.90;;;;;;5004540;28;20488;-35
2023/08/04 03:25:31;;;;;;;4.28;0.60;;;15.30;99.90;;;;;;5012757;28;20045;-35
2023/08/04 03:27:56;;;;;;;3.85;0.60;;;15.30;99.90;;;;;;5003338;28;20112;-34
2023/08/04 03:30:22;;;;;;;3.03;0.52;;;15.40;99.90;;;;;;5004630;28;20061;-34
2023/08/04 03:32:47;;;;;;;3.80;0.60;;;15.40;99.90;;;;;;5006295;28;20073;-35
2023/08/04 03:35:13;;;;;;;2.97;0.82;;;15.40;99.90;;;;;;5008465;28;20054;-35
2023/08/04 03:37:39;;;;;;;4.13;0.60;;;15.40;99.90;;;;;;5014448;28;20503;-35
2023/08/04 03:40:07;;;;;;;1.92;0.65;;;15.40;99.90;;;;;;5011232;28;20057;-35
2023/08/04 03:42:33;;;;;;;2.10;0.50;;;15.40;99.90;;;;;;5011788;28;20124;-35
2023/08/04 03:44:58;;;;;;;2.75;0.57;;;15.50;99.90;;;;;;5005119;28;20257;-35
2023/08/04 03:47:24;;;;;;;1.85;0.50;;;15.50;99.90;;;;;;5008208;28;20096;-35
2023/08/04 03:49:50;;;;;;;1.33;0.35;;;15.50;99.90;;;;;;5010019;28;20053;-35
2023/08/04 03:52:15;;;;;;;1.83;0.50;;;15.50;99.90;;;;;;5006550;28;20041;-35
2023/08/04 03:54:41;;;;;;;5.10;0.60;;;15.50;99.90;;;;;;5014158;28;20061;-35
2023/08/04 03:57:06;;;;;;;1.38;0.40;;;15.50;99.90;;;;;;5009123;28;20058;-35
2023/08/04 03:59:32;;;;;;;1.17;0.40;;;15.60;99.90;;;;;;5006808;28;20053;-35
2023/08/04 04:01:58;;;;;;;5.07;0.73;;;15.60;99.90;;;;;;5003383;28;20062;-35
2023/08/04 04:04:23;;;;;;;2.28;0.52;;;15.60;99.90;;;;;;5011357;28;20194;-35
2023/08/04 04:06:49;;;;;;;1.95;0.38;;;15.60;99.90;;;;;;5008585;28;20100;-34
2023/08/04 04:09:15;;;;;;;0.50;0.35;;;15.60;99.90;;;;;;5011799;28;20050;-35
2023/08/04 04:11:40;;;;;;;1.20;0.50;;;15.60;99.90;;;;;;4990368;28;20770;-35
2023/08/04 04:14:07;;;;;;;4.43;0.55;;;15.60;99.90;;;;;;5009170;28;20507;-35
2023/08/04 04:16:33;;;;;;;2.00;0.30;;;15.60;99.90;;;;;;5013578;28;20503;-35
2023/08/04 04:18:59;;;;;;;1.35;0.38;;;15.70;99.90;;;;;;5011695;28;20050;-35
2023/08/04 04:21:24;;;;;;;1.65;0.28;;;15.70;99.90;;;;;;5013968;28;20065;-35
2023/08/04 04:23:50;;;;;;;1.60;0.50;;;15.70;99.90;;;;;;5009076;28;20050;-35
2023/08/04 04:26:16;;;;;;;2.03;0.30;;;15.70;99.90;;;;;;5013973;28;20050;-35
2023/08/04 04:28:41;;;;;;;1.90;0.30;;;15.70;99.90;;;;;;5008716;28;20054;-35
2023/08/04 04:31:07;;;;;;;1.02;0.30;;;15.70;99.90;;;;;;5019433;28;20057;-35
2023/08/04 04:33:32;;;;;;;1.40;0.40;;;15.70;99.90;;;;;;5010862;28;20053;-35
2023/08/04 04:35:58;;;;;;;3.78;0.50;;;15.70;99.90;;;;;;5009324;28;20057;-35
2023/08/04 04:38:28;;;;;;;1.70;0.70;;;15.70;99.90;;;;;;5003861;28;20061;-35
2023/08/04 04:40:58;;;;;;;1.58;0.40;;;15.70;99.90;;;;;;5010439;28;20061;-35
2023/08/04 04:43:24;;;;;;;2.78;0.47;;;15.70;99.90;;;;;;5003044;28;20053;-35
2023/08/04 04:45:51;;;;;;;1.55;0.50;;;15.70;99.90;;;;;;5008312;28;20072;-34
2023/08/04 04:48:17;;;;;;;0.55;0.30;;;15.60;99.90;;;;;;5010543;28;20408;-35
2023/08/04 04:50:43;;;;;;;1.05;0.40;;;15.60;99.90;;;;;;5007822;28;20054;-35
2023/08/04 04:53:09;;;;;;;1.52;0.40;;;15.60;99.90;;;;;;5005602;28;20087;-35
2023/08/04 04:55:35;;;;;;;1.50;0.40;;;15.60;99.90;;;;;;5005398;28;20137;-34
2023/08/04 04:58:01;;;;;;;2.78;0.60;;;15.60;99.90;;;;;;5017636;28;20491;-35
2023/08/04 05:00:26;;;;;;;1.17;0.40;;;15.70;99.90;;;;;;5008665;28;20054;-34
2023/08/04 05:02:52;;;;;;;1.23;0.57;;;15.70;99.90;;;;;;5014878;28;20057;-35
2023/08/04 05:05:18;;;;;;;2.63;0.40;;;15.70;99.90;;;;;;5011980;28;20506;-35
2023/08/04 05:07:43;;;;;;;4.22;0.60;;;15.70;99.90;;;;;;5013056;28;20053;-35
2023/08/04 05:10:09;;;;;;;1.58;0.40;;;15.70;99.90;;;;;;5006906;28;20069;-35
2023/08/04 05:12:35;;;;;;;2.95;0.65;;;15.70;99.90;;;;;;5009415;28;20549;-35
2023/08/04 05:15:01;;;;;;;0.93;0.30;;;15.80;99.90;;;;;;5005839;28;20042;-35
2023/08/04 05:17:27;;;;;;;1.35;0.73;;;15.80;99.90;;;;;;5006454;28;20058;-34
2023/08/04 05:19:53;;;;;;;3.75;0.40;;;15.90;99.90;;;;;;4986593;28;20057;-35
2023/08/04 05:22:18;;;;;;;2.35;0.40;;;15.90;99.90;;;;;;5005791;28;20768;-35
2023/08/04 05:24:44;;;;;;;2.05;0.63;;;15.90;99.90;;;;;;5005966;28;20082;-35
2023/08/04 05:27:10;;;;;;;2.47;0.60;;;15.90;99.90;;;;;;5012348;28;20099;-35
2023/08/04 05:29:35;;;;;;;2.53;0.50;;;15.90;99.90;;;;;;5011627;28;20045;-35
2023/08/04 05:32:01;;;;;;;2.35;0.40;;;15.90;99.90;;;;;;5007505;28;20419;-34
2023/08/04 05:34:27;;;;;;;1.23;0.40;;;16.00;99.90;;;;;;5007019;28;20388;-34
2023/08/04 05:36:52;;;;;;;3.10;0.50;;;16.00;99.90;;;;;;5009972;28;20060;-34
2023/08/04 05:39:18;;;;;;;2.50;0.50;;;16.10;99.90;;;;;;5007323;28;20132;-35
2023/08/04 05:41:45;;;;;;;0.70;0.22;;;16.10;99.90;;;;;;5007467;28;20147;-35
2023/08/04 05:44:11;;;;;;;2.15;0.43;;;16.20;99.90;;;;;;5012353;28;20104;-35
2023/08/04 05:46:37;;;;;;;1.90;0.30;;;16.20;99.90;;;;;;5012880;28;20153;-35
2023/08/04 05:49:03;;;;;;;1.20;0.40;;;16.20;99.90;;;;;;4992942;28;20458;-35
2023/08/04 05:51:28;;;;;;;4.55;0.40;;;16.20;99.90;;;;;;5008329;28;20054;-35
2023/08/04 05:53:54;;;;;;;1.95;0.30;;;16.20;99.90;;;;;;5006642;28;20148;-35
2023/08/04 05:56:20;;;;;;;1.00;0.40;;;16.20;99.90;;;;;;5008957;28;20143;-35
2023/08/04 05:58:45;;;;;;;0.80;0.30;;;16.20;99.90;;;;;;5006279;28;20415;-35
2023/08/04 06:01:11;;;;;;;0.68;0.30;;;16.20;99.90;;;;;;5001521;28;20510;-35
2023/08/04 06:03:36;;;;;;;1.45;0.30;;;16.20;99.90;;;;;;5004530;28;20084;-35
2023/08/04 06:06:03;;;;;;;1.52;0.20;;;16.30;99.90;;;;;;5009148;28;20065;-35
2023/08/04 06:08:29;;;;;;;0.45;0.25;;;16.30;99.90;;;;;;5008059;28;20415;-35
2023/08/04 06:10:55;;;;;;;1.13;0.40;;;16.40;99.90;;;;;;5011865;28;20099;-35
2023/08/04 06:13:20;;;;;;;0.95;0.30;;;16.40;99.90;;;;;;5009891;28;21297;-35
2023/08/04 06:15:47;;;;;;;1.08;0.30;;;16.50;99.90;;;;;;5009696;28;20096;-35
2023/08/04 06:18:13;;;;;;;1.17;0.30;;;16.50;99.90;;;;;;5005915;28;20132;-34
2023/08/04 06:20:39;;;;;;;0.65;0.30;;;16.50;99.90;;;;;;5006824;28;20057;-35
2023/08/04 06:23:05;;;;;;;1.42;0.30;;;16.60;99.90;;;;;;5000212;28;20046;-34
2023/08/04 06:25:31;;;;;;;2.00;0.32;;;16.60;99.90;;;;;;4999389;28;20041;-35
2023/08/04 06:27:57;;;;;;;0.55;0.30;;;16.60;99.90;;;;;;4997928;28;20112;-35
2023/08/04 06:30:23;;;;;;;1.27;0.20;;;16.70;99.90;;;;;;5005174;28;20104;-35
2023/08/04 06:32:49;;;;;;;1.40;0.52;;;16.70;99.90;;;;;;5005227;28;20404;-35
2023/08/04 06:35:15;;;;;;;0.50;0.30;;;16.70;99.90;;;;;;4998471;28;20112;-35
2023/08/04 06:37:41;;;;;;;1.02;0.30;;;16.80;99.90;;;;;;4999749;28;20058;-35
2023/08/04 06:40:07;;;;;;;2.28;0.30;;;16.80;99.90;;;;;;5001050;28;20136;-35
2023/08/04 06:42:33;;;;;;;1.98;0.40;;;16.90;99.90;;;;;;4999699;28;20496;-35
2023/08/04 06:44:58;;;;;;;0.77;0.30;;;16.90;99.90;;;;;;5010159;28;20050;-35
2023/08/04 06:47:24;;;;;;;1.15;0.30;;;16.90;99.90;;;;;;5011747;28;20434;-35
2023/08/04 06:49:50;;;;;;;0.98;0.52;;;16.90;99.90;;;;;;5011613;28;20120;-34
2023/08/04 06:52:15;;;;;;;2.05;0.50;;;16.90;99.90;;;;;;5003396;28;20038;-35
2023/08/04 06:54:41;;;;;;;1.30;0.35;;;16.80;99.90;;;;;;5000891;28;20069;-35
2023/08/04 06:57:07;;;;;;;1.10;0.30;;;16.90;99.90;;;;;;4996710;28;20056;-34
2023/08/04 06:59:33;;;;;;;1.27;0.30;;;16.80;99.90;;;;;;4997271;28;20054;-34
2023/08/04 07:01:59;;;;;;;1.00;0.40;;;16.80;99.90;;;;;;5002189;28;20062;-35
2023/08/04 07:04:25;;;;;;;2.55;0.60;;;16.90;99.90;;;;;;5000511;28;20495;-34
2023/08/04 07:06:51;;;;;;;2.75;0.65;;;16.90;99.90;;;;;;5000030;28;20058;-35
2023/08/04 07:09:17;;;;;;;0.65;0.43;;;16.80;99.90;;;;;;4999301;28;20061;-34
2023/08/04 07:11:43;;;;;;;1.15;0.43;;;16.80;99.90;;;;;;4997107;28;20053;-35
2023/08/04 07:14:09;;;;;;;1.35;0.50;;;16.70;99.90;;;;;;5004898;28;20160;-35
2023/08/04 07:16:34;;;;;;;2.65;0.43;;;16.60;99.90;;;;;;5002094;28;20629;-35
2023/08/04 07:19:00;;;;;;;0.75;0.30;;;16.50;99.90;;;;;;5000050;28;20065;-36
2023/08/04 07:21:26;;;;;;;0.50;0.20;;;16.40;99.90;;;;;;5005369;28;20144;-35
2023/08/04 07:23:51;;;;;;;2.28;0.40;;;16.30;99.90;;;;;;5009053;28;20097;-35
2023/08/04 07:26:17;;;;;;;0.45;0.20;;;16.20;99.90;;;;;;5006683;28;20087;-35
2023/08/04 07:28:43;;;;;;;0.57;0.30;;;16.10;99.90;;;;;;5013095;28;20227;-36
2023/08/04 07:31:09;;;;;;;1.23;0.30;;;16.00;99.90;;;;;;5011301;28;20468;-35
2023/08/04 07:33:36;;;;;;;0.98;0.30;;;16.00;99.90;;;;;;5005654;28;20110;-35
2023/08/04 07:36:03;;;;;;;4.68;0.70;;;16.10;99.90;;;;;;5005147;28;20506;-35
2023/08/04 07:38:30;;;;;;;1.55;0.38;;;16.10;99.90;;;;;;5002244;28;20057;-35
2023/08/04 07:40:56;;;;;;;0.95;0.30;;;16.20;99.90;;;;;;5010238;28;20050;-35
2023/08/04 07:43:22;;;;;;;1.10;0.40;;;16.30;99.90;;;;;;5006828;28;20476;-35
2023/08/04 07:45:48;;;;;;;0.88;0.30;;;16.40;99.90;;;;;;5005152;28;20403;-35
2023/08/04 07:48:14;;;;;;;1.15;0.60;;;16.40;99.90;;;;;;5008265;28;20140;-36
2023/08/04 07:50:41;;;;;;;0.73;0.30;;;16.40;99.90;;;;;;5007293;28;20099;-35
2023/08/04 07:53:07;;;;;;;1.20;0.43;;;16.50;99.90;;;;;;5008453;28;20064;-35
2023/08/04 07:55:34;;;;;;;1.52;0.40;;;16.60;99.90;;;;;;5005749;28;20616;-35
2023/08/04 07:58:01;;;;;;;1.58;0.30;;;16.60;99.90;;;;;;5006303;28;20057;-35
2023/08/04 08:00:26;;;;;;;1.63;0.57;;;16.80;99.90;;;;;;5007820;28;20042;-35
2023/08/04 08:02:52;;;;;;;0.93;0.40;;;16.90;99.90;;;;;;5009239;28;20052;-36
2023/08/04 08:05:18;;;;;;;1.42;0.47;;;17.00;99.90;;;;;;5008518;28;20054;-35
2023/08/04 08:07:43;;;;;;;3.17;0.50;;;17.10;99.90;;;;;;5006518;28;20141;-35
2023/08/04 08:10:09;;;;;;;2.05;1.05;;;17.10;99.90;;;;;;4998099;28;20073;-35
2023/08/04 08:12:35;;;;;;;0.82;0.40;;;17.20;99.90;;;;;;5007553;28;20048;-35
2023/08/04 08:15:00;;;;;;;1.45;0.40;;;17.20;99.90;;;;;;5003993;28;20048;-36
2023/08/04 08:17:26;;;;;;;1.95;0.40;;;17.20;99.90;;;;;;5011388;28;20491;-36
2023/08/04 08:19:52;;;;;;;1.58;0.50;;;17.30;99.90;;;;;;5007727;28;20141;-35
2023/08/04 08:22:17;;;;;;;2.42;0.88;;;17.40;99.90;;;;;;5006751;28;20045;-36
2023/08/04 08:24:43;;;;;;;2.22;0.60;;;17.50;99.90;;;;;;5002765;28;20415;-36
2023/08/04 08:27:08;;;;;;;2.45;0.52;;;17.60;99.90;;;;;;5006395;28;20594;-35
2023/08/04 08:29:39;;;;;;;3.00;0.40;;;17.70;99.90;;;;;;5008485;28;21469;-35
2023/08/04 08:32:05;;;;;;;1.33;0.40;;;17.70;99.90;;;;;;5012207;28;20112;-35
2023/08/04 08:34:31;;;;;;;2.28;0.60;;;17.80;99.90;;;;;;5006257;28;20041;-35
2023/08/04 08:36:57;;;;;;;1.83;0.30;;;18.00;99.90;;;;;;5010852;28;20068;-36
2023/08/04 08:39:23;;;;;;;0.98;0.30;;;18.00;99.90;;;;;;5003878;28;20046;-35
2023/08/04 08:41:48;;;;;;;1.35;0.38;;;18.10;99.90;;;;;;5009104;28;20107;-35
2023/08/04 08:44:14;;;;;;;3.72;0.30;;;18.20;99.90;;;;;;5007792;28;20127;-35
2023/08/04 08:46:40;;;;;;;1.00;0.40;;;18.20;99.90;;;;;;5005029;28;20058;-34
2023/08/04 08:49:06;;;;;;;1.30;0.40;;;18.30;99.90;;;;;;5006675;28;20064;-35
2023/08/04 08:51:34;;;;;;;2.22;0.70;;;18.30;99.90;;;;;;5007311;28;20045;-35
2023/08/04 08:54:02;;;;;;;0.82;0.40;;;18.20;99.90;;;;;;5011349;28;20192;-35
2023/08/04 08:56:27;;;;;;;0.73;0.30;;;18.20;99.90;;;;;;5005326;28;20053;-35
2023/08/04 08:58:55;;;;;;;1.15;0.40;;;18.30;99.90;;;;;;5008092;28;20070;-35
2023/08/04 09:01:20;;;;;;;0.73;0.30;;;18.30;99.90;;;;;;5004739;28;20061;-35
2023/08/04 09:03:46;;;;;;;1.15;0.50;;;18.30;99.90;;;;;;5001571;28;20054;-35
2023/08/04 09:06:12;;;;;;;0.77;0.35;;;18.40;99.90;;;;;;5002336;28;20442;-36
2023/08/04 09:08:38;;;;;;;1.05;0.40;;;18.40;99.90;;;;;;5007558;28;20041;-35
2023/08/04 09:11:05;;;;;;;1.42;0.32;;;18.40;99.90;;;;;;5007730;28;20152;-35
2023/08/04 09:13:31;;;;;;;0.82;0.50;;;18.40;99.90;;;;;;5001519;28;20831;-35
2023/08/04 09:16:00;;;;;;;1.00;0.20;;;18.40;99.90;;;;;;5002805;28;20057;-35
2023/08/04 09:18:27;;;;;;;0.77;0.20;;;18.40;99.90;;;;;;5008016;28;20483;-35
2023/08/04 09:21:08;;;;;;;0.85;0.30;;;18.40;99.90;;;;;;5005800;28;20161;-35
2023/08/04 09:23:51;;;;;;;1.23;0.40;;;18.40;99.90;;;;;;5017325;28;20054;-35
2023/08/04 09:26:18;;;;;;;1.00;0.28;;;18.50;99.90;;;;;;5011443;28;20050;-36
2023/08/04 09:28:44;;;;;;;0.88;0.35;;;18.70;99.90;;;;;;5004273;28;20045;-35
2023/08/04 09:31:11;;;;;;;0.93;0.30;;;18.80;99.90;;;;;;5004331;28;20408;-35
2023/08/04 09:33:43;;;;;;;3.92;0.50;;;18.80;99.90;;;;;;5007879;28;20046;-35
2023/08/04 09:36:15;;;;;;;1.93;0.57;;;18.90;99.90;;;;;;5006536;28;20046;-35
2023/08/04 09:38:42;;;;;;;1.35;0.50;;;19.10;99.90;;;;;;5003986;28;20316;-35
2023/08/04 09:41:13;;;;;;;2.10;0.52;;;19.30;99.90;;;;;;5008241;28;20125;-35
2023/08/04 09:43:47;;;;;;;3.00;0.68;;;19.50;99.90;;;;;;5010711;28;20054;-35
2023/08/04 09:46:13;;;;;;;3.22;0.82;;;19.60;99.90;;;;;;4991595;28;20061;-35
2023/08/04 09:48:39;;;;;;;3.33;0.90;;;19.70;99.90;;;;;;5015370;28;20046;-36
2023/08/04 09:51:09;;;;;;;2.28;0.70;;;19.70;99.90;;;;;;5008537;28;20091;-35
2023/08/04 09:53:47;;;;;;;2.88;0.82;;;19.70;99.90;;;;;;4996121;28;20077;-36
2023/08/04 09:56:15;;;;;;;2.00;0.57;;;19.80;99.90;;;;;;5003126;28;20076;-35
2023/08/04 09:58:42;;;;;;;1.67;0.50;;;19.90;99.90;;;;;;5001521;28;20499;-35
2023/08/04 10:01:07;;;;;;;2.88;0.47;;;20.00;99.90;;;;;;4988419;28;20061;-35
2023/08/04 10:03:36;;;;;;;2.45;0.70;;;20.00;99.90;;;;;;5001846;28;20679;-35
2023/08/04 10:06:05;;;;;;;2.15;0.60;;;20.00;99.90;;;;;;5004778;28;20073;-35
2023/08/04 10:08:36;;;;;;;3.47;0.70;;;20.10;99.90;;;;;;4999003;28;20049;-35
2023/08/04 10:11:02;;;;;;;4.03;0.65;;;20.10;99.90;;;;;;5000161;28;20144;-35
2023/08/04 10:13:33;;;;;;;4.00;0.52;;;20.00;99.90;;;;;;5005199;28;20042;-35
2023/08/04 10:16:02;;;;;;;1.23;0.50;;;20.10;99.90;;;;;;5002065;28;20050;-35
2023/08/04 10:18:49;;;;;;;2.83;0.50;;;20.20;99.90;;;;;;5002343;28;20054;-35
2023/08/04 10:21:17;;;;;;;2.40;0.60;;;20.20;99.90;;;;;;5003521;28;20236;-35
2023/08/04 10:23:42;;;;;;;4.50;0.60;;;20.30;99.90;;;;;;5000843;28;20045;-35
2023/08/04 10:26:12;;;;;;;4.07;0.50;;;20.30;99.90;;;;;;5004765;28;20049;-36
2023/08/04 10:29:05;;;;;;;3.42;0.60;;;20.40;99.90;;;;;;5008670;28;20049;-35
2023/08/04 10:31:47;;;;;;;1.50;0.63;;;20.50;99.90;;;;;;5009991;28;20050;-35
2023/08/04 10:34:32;;;;;;;3.15;0.52;;;20.50;99.90;;;;;;4999301;28;20598;-36
2023/08/04 10:37:07;;;;;;;3.08;0.68;;;20.40;99.90;;;;;;4983452;28;20058;-34
2023/08/04 10:39:36;;;;;;;1.73;0.57;;;20.50;99.90;;;;;;4978538;28;20438;-35
2023/08/04 10:42:12;;;;;;;2.08;0.68;;;20.50;99.90;;;;;;4981515;28;20057;-36
2023/08/04 10:45:07;;;;;;;3.70;0.80;;;20.40;99.90;;;;;;4999974;28;20132;-35
2023/08/04 10:47:39;;;;;;;1.50;0.60;;;20.40;99.90;;;;;;5000580;28;20112;-35
2023/08/04 10:50:05;;;;;;;1.67;0.68;;;20.50;99.90;;;;;;5001626;28;20088;-35
2023/08/04 10:52:33;;;;;;;1.75;0.60;;;20.50;99.90;;;;;;5000994;28;20078;-35
2023/08/04 10:54:59;;;;;;;1.90;0.80;;;20.60;99.90;;;;;;4992398;28;20404;-35
2023/08/04 10:57:28;;;;;;;2.30;0.60;;;20.60;99.90;;;;;;4992522;28;20492;-35
2023/08/04 10:59:54;;;;;;;1.98;0.40;;;20.40;99.90;;;;;;4996976;28;20046;-35
2023/08/04 11:02:21;;;;;;;3.80;0.75;;;20.30;99.90;;;;;;4998458;28;20511;-35
2023/08/04 11:04:48;;;;;;;3.53;0.65;;;20.20;99.90;;;;;;5003654;28;20053;-35
2023/08/04 11:07:17;;;;;;;1.77;0.50;;;20.40;99.90;;;;;;5000480;28;20052;-36
2023/08/04 11:09:46;;;;;;;3.10;0.68;;;20.80;99.90;;;;;;4990053;28;20271;-35
2023/08/04 11:12:13;;;;;;;5.00;0.77;;;21.00;99.90;;;;;;4997536;28;20060;-35
2023/08/04 11:14:39;;;;;;;2.95;0.50;;;21.10;99.90;;;;;;4996566;28;20112;-36
2023/08/04 11:17:23;;;;;;;2.60;0.60;;;21.20;99.90;;;;;;4999264;28;20088;-35
2023/08/04 11:19:49;;;;;;;2.40;0.60;;;21.10;99.90;;;;;;4995663;28;20058;-35
2023/08/04 11:22:17;;;;;;;2.88;0.55;;;21.00;99.90;;;;;;4993479;28;20049;-35
2023/08/04 11:24:44;;;;;;;1.90;0.50;;;20.80;99.90;;;;;;5001471;28;20148;-35
2023/08/04 11:27:11;;;;;;;2.45;0.60;;;20.80;99.90;;;;;;5002054;28;20061;-35
2023/08/04 11:29:38;;;;;;;1.60;0.70;;;20.90;99.90;;;;;;5001436;28;20062;-35
2023/08/04 11:32:24;;;;;;;3.83;0.43;;;20.90;99.90;;;;;;5004431;28;20120;-36
2023/08/04 11:34:53;;;;;;;1.40;0.40;;;20.90;99.90;;;;;;5004631;28;20076;-35
2023/08/04 11:37:19;;;;;;;3.00;0.60;;;20.80;99.90;;;;;;5001388;28;20111;-35
2023/08/04 11:39:45;;;;;;;3.97;0.60;;;20.60;99.90;;;;;;5004428;28;20157;-35
2023/08/04 11:42:12;;;;;;;0.95;0.40;;;20.40;99.90;;;;;;5005758;28;20058;-35
2023/08/04 11:44:42;;;;;;;1.20;0.52;;;20.40;99.90;;;;;;5002699;28;20069;-35
2023/08/04 11:47:13;;;;;;;2.92;0.70;;;20.60;99.90;;;;;;5004507;28;20104;-35
2023/08/04 11:49:40;;;;;;;1.67;0.50;;;20.90;99.90;;;;;;5011580;28;20096;-36
2023/08/04 11:52:10;;;;;;;2.78;0.70;;;21.10;99.90;;;;;;4997975;28;20499;-35
2023/08/04 11:54:35;;;;;;;1.95;0.60;;;21.30;99.90;;;;;;5000767;28;20062;-35
2023/08/04 11:57:01;;;;;;;4.35;0.75;;;21.30;99.90;;;;;;5010256;28;20050;-35
2023/08/04 11:59:27;;;;;;;3.20;0.68;;;21.40;99.90;;;;;;5003814;28;20141;-35
2023/08/04 12:02:08;;;;;;;5.80;0.65;;;21.50;99.90;;;;;;5003010;28;20053;-35
2023/08/04 12:04:34;;;;;;;2.65;0.40;;;21.60;99.90;;;;;;5008905;28;20049;-35
2023/08/04 12:07:04;;;;;;;2.08;0.98;;;21.50;99.90;;;;;;4991192;28;20057;-35
2023/08/04 12:09:30;;;;;;;2.90;0.70;;;21.30;99.90;;;;;;4999990;28;20133;-35
2023/08/04 12:11:56;;;;;;;1.38;0.60;;;21.00;99.90;;;;;;5010096;28;20131;-35
2023/08/04 12:14:23;;;;;;;3.88;0.98;;;20.90;99.90;;;;;;5002823;28;20495;-35
2023/08/04 12:16:53;;;;;;;1.77;0.40;;;21.00;99.90;;;;;;5001530;28;20053;-34
2023/08/04 12:19:20;;;;;;;3.45;0.60;;;21.30;99.90;;;;;;4989798;28;20104;-35
2023/08/04 12:21:47;;;;;;;2.17;0.60;;;21.60;99.90;;;;;;4994687;28;20172;-35
2023/08/04 12:24:13;;;;;;;4.10;0.52;;;21.90;99.90;;;;;;5002031;28;21019;-35
2023/08/04 12:26:39;;;;;;;4.03;0.40;;;22.00;99.90;;;;;;5003034;28;20041;-35
2023/08/04 12:29:05;;;;;;;2.13;0.57;;;22.20;99.90;;;;;;5008737;28;20132;-35
2023/08/04 12:31:30;;;;;;;2.28;0.60;;;22.30;99.90;;;;;;5006841;28;20224;-35
2023/08/04 12:33:56;;;;;;;2.10;0.77;;;22.40;99.90;;;;;;5005045;28;20058;-35
2023/08/04 12:36:22;;;;;;;2.67;0.43;;;22.50;99.90;;;;;;5014626;28;20415;-35
2023/08/04 12:38:47;;;;;;;2.22;0.52;;;22.70;99.90;;;;;;5005644;28;20125;-35
2023/08/04 12:41:13;;;;;;;4.32;0.68;;;22.80;99.90;;;;;;5007794;28;20045;-35
2023/08/04 12:43:39;;;;;;;4.10;0.90;;;22.60;99.90;;;;;;5008043;28;20049;-35
2023/08/04 12:46:04;;;;;;;3.72;0.80;;;22.40;99.90;;;;;;5008096;28;20046;-35
2023/08/04 12:48:30;;;;;;;3.67;0.80;;;22.30;99.90;;;;;;5011427;28;20060;-35